Terminal Aerodrome Forecast
Issued by NWS

Home | Current Version | Previous Version | Text Only | Print | Product List | Glossary On
Versions: 1 2 3 4 5 6 7 8 9 10 11 12 13 14 15
000
FTUS42 KTBW 132300
TAFPIE
TAF
KPIE 132331Z 1400/1424 04005KT P6SM BKN250
     FM141400 13005KT P6SM SCT020
     FM141600 VRB05KT P6SM SCT035
     FM141900 27008KT P6SM VCTS SCT040CB=

USA.gov is the U.S. government's official web portal to all federal, state and local government web resources and services.